Time,TemperatureF,DewpointF,PressureIn,WindDirection,WindDirectionDegrees,WindSpeedMPH,WindSpeedGustMPH,Humidity,HourlyPrecipIn,Conditions,Clouds,dailyrainin,SoftwareType,DateUTC
2013-03-27 00:00:00,25.7,21.5,29.83,NE,53,0.0,0.0,84,0.00,,,0.00,Wunderground v.1.13,2013-03-27 04:00:00,
2013-03-27 00:01:00,25.8,21.6,29.83,NE,53,0.0,0.0,84,0.00,,,0.00,Wunderground v.1.13,2013-03-27 04:01:00,
2013-03-27 00:06:00,25.5,20.8,29.83,NE,53,0.0,0.0,82,0.00,,,0.00,Wunderground v.1.13,2013-03-27 04:06:00,
2013-03-27 00:09:00,25.4,20.7,29.83,NE,53,0.0,0.0,82,0.00,,,0.00,Wunderground v.1.13,2013-03-27 04:09:00,
2013-03-27 00:14:00,25.3,20.9,29.82,NE,53,0.0,0.0,83,0.00,,,0.00,Wunderground v.1.13,2013-03-27 04:14:00,
2013-03-27 00:20:00,25.3,21.1,29.82,NE,53,0.0,0.0,84,0.00,,,0.00,Wunderground v.1.13,2013-03-27 04:20:00,
2013-03-27 00:25:00,25.2,20.8,29.83,NE,53,0.0,1.0,83,0.00,,,0.00,Wunderground v.1.13,2013-03-27 04:25:00,
2013-03-27 00:30:00,25.1,20.7,29.82,NE,53,0.0,0.0,83,0.00,,,0.00,Wunderground v.1.13,2013-03-27 04:30:00,
2013-03-27 00:36:00,25.2,20.8,29.82,NE,53,0.0,0.0,83,0.00,,,0.00,Wunderground v.1.13,2013-03-27 04:36:00,
2013-03-27 00:41:00,25.2,20.8,29.82,NE,53,0.0,0.0,83,0.00,,,0.00,Wunderground v.1.13,2013-03-27 04:41:00,
2013-03-27 00:47:00,25.1,20.7,29.82,NE,53,0.0,0.0,83,0.00,,,0.00,Wunderground v.1.13,2013-03-27 04:47:00,
2013-03-27 00:52:00,24.7,20.3,29.83,NE,53,0.0,0.0,83,0.00,,,0.00,Wunderground v.1.13,2013-03-27 04:52:00,
2013-03-27 00:58:00,24.3,19.9,29.82,NE,53,0.0,0.0,83,0.00,,,0.00,Wunderground v.1.13,2013-03-27 04:58:00,
2013-03-27 01:03:00,24.1,19.7,29.83,NE,53,0.0,0.0,83,0.00,,,0.00,Wunderground v.1.13,2013-03-27 05:03:00,
2013-03-27 01:08:00,24.0,19.9,29.83,NE,53,0.0,0.0,84,0.00,,,0.00,Wunderground v.1.13,2013-03-27 05:08:00,
2013-03-27 01:14:00,24.1,20.0,29.82,NE,53,0.0,0.0,84,0.00,,,0.00,Wunderground v.1.13,2013-03-27 05:14:00,
2013-03-27 01:19:00,24.0,19.9,29.83,NE,53,0.0,0.0,84,0.00,,,0.00,Wunderground v.1.13,2013-03-27 05:19:00,
2013-03-27 01:24:00,24.1,20.0,29.83,NE,53,0.0,0.0,84,0.00,,,0.00,Wunderground v.1.13,2013-03-27 05:24:00,
2013-03-27 01:30:00,24.0,19.9,29.82,NE,53,0.0,0.0,84,0.00,,,0.00,Wunderground v.1.13,2013-03-27 05:30:00,
2013-03-27 01:35:00,23.9,19.8,29.82,NE,53,0.0,0.0,84,0.00,,,0.00,Wunderground v.1.13,2013-03-27 05:35:00,
2013-03-27 01:41:00,23.7,19.6,29.82,NE,53,0.0,0.0,84,0.00,,,0.00,Wunderground v.1.13,2013-03-27 05:41:00,
2013-03-27 01:46:00,23.4,19.3,29.82,NE,53,0.0,0.0,84,0.00,,,0.00,Wunderground v.1.13,2013-03-27 05:46:00,
2013-03-27 01:51:00,23.2,19.1,29.82,NE,53,0.0,0.0,84,0.00,,,0.00,Wunderground v.1.13,2013-03-27 05:51:00,
2013-03-27 01:57:00,23.2,19.4,29.82,NE,53,0.0,0.0,85,0.00,,,0.00,Wunderground v.1.13,2013-03-27 05:57:00,
2013-03-27 02:02:00,23.3,19.5,29.82,NE,53,0.0,0.0,85,0.00,,,0.00,Wunderground v.1.13,2013-03-27 06:02:00,
2013-03-27 02:07:00,23.3,19.5,29.82,NE,53,0.0,1.0,85,0.00,,,0.00,Wunderground v.1.13,2013-03-27 06:07:00,
2013-03-27 02:12:00,23.1,19.0,29.82,NE,53,0.0,0.0,84,0.00,,,0.00,Wunderground v.1.13,2013-03-27 06:12:00,
2013-03-27 02:17:00,22.8,19.0,29.82,NE,53,0.0,0.0,85,0.00,,,0.00,Wunderground v.1.13,2013-03-27 06:17:00,
2013-03-27 02:22:00,22.6,18.5,29.82,NE,53,0.0,0.0,84,0.00,,,0.00,Wunderground v.1.13,2013-03-27 06:22:00,
2013-03-27 02:27:00,22.5,18.7,29.82,NE,53,0.0,0.0,85,0.00,,,0.00,Wunderground v.1.13,2013-03-27 06:27:00,
2013-03-27 02:32:00,22.5,18.9,29.82,NE,53,0.0,0.0,86,0.00,,,0.00,Wunderground v.1.13,2013-03-27 06:32:00,
2013-03-27 02:37:00,22.5,18.9,29.82,NE,53,0.0,0.0,86,0.00,,,0.00,Wunderground v.1.13,2013-03-27 06:37:00,
2013-03-27 02:42:00,22.5,18.9,29.82,NE,53,0.0,0.0,86,0.00,,,0.00,Wunderground v.1.13,2013-03-27 06:42:00,
2013-03-27 02:47:00,22.4,18.8,29.82,NE,53,0.0,0.0,86,0.00,,,0.00,Wunderground v.1.13,2013-03-27 06:47:00,
2013-03-27 02:53:00,22.4,18.8,29.82,NE,53,0.0,0.0,86,0.00,,,0.00,Wunderground v.1.13,2013-03-27 06:53:00,
2013-03-27 02:58:00,22.5,19.2,29.82,NE,53,0.0,0.0,87,0.00,,,0.00,Wunderground v.1.13,2013-03-27 06:58:00,
2013-03-27 03:03:00,22.6,19.3,29.82,NE,53,0.0,0.0,87,0.00,,,0.00,Wunderground v.1.13,2013-03-27 07:03:00,
2013-03-27 03:08:00,22.2,18.4,29.82,NE,53,0.0,0.0,85,0.00,,,0.00,Wunderground v.1.13,2013-03-27 07:08:00,
2013-03-27 03:13:00,22.0,18.5,29.82,NE,53,0.0,0.0,86,0.00,,,0.00,Wunderground v.1.13,2013-03-27 07:13:00,
2013-03-27 03:18:00,22.0,18.5,29.82,NE,53,0.0,1.0,86,0.00,,,0.00,Wunderground v.1.13,2013-03-27 07:18:00,
2013-03-27 03:23:00,22.0,18.5,29.82,NE,53,0.0,0.0,86,0.00,,,0.00,Wunderground v.1.13,2013-03-27 07:23:00,
2013-03-27 03:28:00,22.0,18.7,29.82,NE,53,0.0,0.0,87,0.00,,,0.00,Wunderground v.1.13,2013-03-27 07:28:00,
2013-03-27 03:34:00,22.1,18.8,29.82,NE,53,0.0,0.0,87,0.00,,,0.00,Wunderground v.1.13,2013-03-27 07:34:00,
2013-03-27 03:39:00,22.0,18.7,29.82,NE,53,0.0,0.0,87,0.00,,,0.00,Wunderground v.1.13,2013-03-27 07:39:00,
2013-03-27 03:44:00,22.0,18.7,29.82,NE,53,0.0,0.0,87,0.00,,,0.00,Wunderground v.1.13,2013-03-27 07:44:00,
2013-03-27 03:49:00,21.9,18.6,29.82,NE,53,0.0,0.0,87,0.00,,,0.00,Wunderground v.1.13,2013-03-27 07:49:00,
2013-03-27 03:54:00,21.7,18.4,29.82,NE,53,0.0,0.0,87,0.00,,,0.00,Wunderground v.1.13,2013-03-27 07:54:00,
2013-03-27 03:59:00,21.6,18.3,29.82,NE,53,0.0,0.0,87,0.00,,,0.00,Wunderground v.1.13,2013-03-27 07:59:00,
2013-03-27 04:04:00,21.4,18.1,29.82,NE,53,0.0,0.0,87,0.00,,,0.00,Wunderground v.1.13,2013-03-27 08:04:00,
2013-03-27 04:09:00,21.3,18.0,29.82,NE,53,0.0,0.0,87,0.00,,,0.00,Wunderground v.1.13,2013-03-27 08:09:00,
2013-03-27 04:14:00,21.2,17.9,29.82,NE,53,0.0,0.0,87,0.00,,,0.00,Wunderground v.1.13,2013-03-27 08:14:00,
2013-03-27 04:19:00,21.2,18.2,29.82,NE,53,0.0,0.0,88,0.00,,,0.00,Wunderground v.1.13,2013-03-27 08:19:00,
2013-03-27 04:25:00,21.2,18.2,29.82,NE,53,0.0,0.0,88,0.00,,,0.00,Wunderground v.1.13,2013-03-27 08:25:00,
2013-03-27 04:30:00,21.3,18.3,29.82,NE,53,0.0,0.0,88,0.00,,,0.00,Wunderground v.1.13,2013-03-27 08:30:00,
2013-03-27 04:35:00,21.4,18.4,29.82,NE,53,0.0,0.0,88,0.00,,,0.00,Wunderground v.1.13,2013-03-27 08:35:00,
2013-03-27 04:40:00,21.5,18.5,29.82,NE,53,0.0,0.0,88,0.00,,,0.00,Wunderground v.1.13,2013-03-27 08:40:00,
2013-03-27 04:45:00,21.7,18.7,29.82,NE,53,0.0,0.0,88,0.00,,,0.00,Wunderground v.1.13,2013-03-27 08:45:00,
2013-03-27 04:50:00,21.8,18.8,29.82,NE,53,0.0,0.0,88,0.00,,,0.00,Wunderground v.1.13,2013-03-27 08:50:00,
2013-03-27 04:55:00,21.9,18.9,29.81,NE,53,0.0,0.0,88,0.00,,,0.00,Wunderground v.1.13,2013-03-27 08:55:00,
2013-03-27 05:00:00,21.9,18.9,29.81,NE,53,0.0,0.0,88,0.00,,,0.00,Wunderground v.1.13,2013-03-27 09:00:00,
2013-03-27 05:05:00,21.8,18.8,29.82,NE,53,0.0,0.0,88,0.00,,,0.00,Wunderground v.1.13,2013-03-27 09:05:00,
2013-03-27 05:10:00,21.8,18.8,29.82,NE,53,0.0,0.0,88,0.00,,,0.00,Wunderground v.1.13,2013-03-27 09:10:00,
2013-03-27 05:16:00,21.7,18.7,29.82,NE,53,0.0,0.0,88,0.00,,,0.00,Wunderground v.1.13,2013-03-27 09:16:00,
2013-03-27 05:21:00,21.6,18.6,29.82,NE,53,0.0,0.0,88,0.00,,,0.00,Wunderground v.1.13,2013-03-27 09:21:00,
2013-03-27 05:26:00,21.6,18.6,29.82,NE,53,0.0,0.0,88,0.00,,,0.00,Wunderground v.1.13,2013-03-27 09:26:00,
2013-03-27 05:31:00,21.7,18.7,29.82,NE,53,0.0,0.0,88,0.00,,,0.00,Wunderground v.1.13,2013-03-27 09:31:00,
2013-03-27 05:36:00,21.6,18.6,29.82,NE,53,0.0,0.0,88,0.00,,,0.00,Wunderground v.1.13,2013-03-27 09:36:00,
2013-03-27 05:41:00,21.8,18.8,29.82,NE,53,0.0,0.0,88,0.00,,,0.00,Wunderground v.1.13,2013-03-27 09:41:00,
2013-03-27 05:46:00,21.8,18.8,29.82,NE,53,0.0,0.0,88,0.00,,,0.00,Wunderground v.1.13,2013-03-27 09:46:00,
2013-03-27 05:51:00,21.9,18.9,29.82,NE,53,0.0,0.0,88,0.00,,,0.00,Wunderground v.1.13,2013-03-27 09:51:00,
2013-03-27 05:56:00,21.8,18.8,29.82,NE,53,0.0,0.0,88,0.00,,,0.00,Wunderground v.1.13,2013-03-27 09:56:00,
2013-03-27 06:01:00,21.8,18.8,29.82,NE,53,0.0,0.0,88,0.00,,,0.00,Wunderground v.1.13,2013-03-27 10:01:00,
2013-03-27 06:06:00,21.8,18.5,29.82,NE,53,0.0,0.0,87,0.00,,,0.00,Wunderground v.1.13,2013-03-27 10:06:00,
2013-03-27 06:11:00,21.7,18.4,29.82,NE,53,0.0,0.0,87,0.00,,,0.00,Wunderground v.1.13,2013-03-27 10:11:00,
2013-03-27 06:17:00,21.6,18.3,29.82,NE,53,0.0,0.0,87,0.00,,,0.00,Wunderground v.1.13,2013-03-27 10:17:00,
2013-03-27 06:22:00,21.4,18.1,29.83,NE,53,0.0,0.0,87,0.00,,,0.00,Wunderground v.1.13,2013-03-27 10:22:00,
2013-03-27 06:27:00,21.5,18.5,29.83,NE,53,0.0,0.0,88,0.00,,,0.00,Wunderground v.1.13,2013-03-27 10:27:00,
2013-03-27 06:32:00,21.6,18.6,29.83,NE,53,0.0,0.0,88,0.00,,,0.00,Wunderground v.1.13,2013-03-27 10:32:00,
2013-03-27 06:38:00,21.6,18.6,29.83,NE,53,0.0,0.0,88,0.00,,,0.00,Wunderground v.1.13,2013-03-27 10:38:00,
2013-03-27 06:43:00,21.5,18.5,29.83,NE,53,0.0,0.0,88,0.00,,,0.00,Wunderground v.1.13,2013-03-27 10:43:00,
2013-03-27 06:48:00,21.6,18.6,29.83,NE,53,0.0,0.0,88,0.00,,,0.00,Wunderground v.1.13,2013-03-27 10:48:00,
2013-03-27 06:53:00,21.5,18.5,29.83,NE,53,0.0,0.0,88,0.00,,,0.00,Wunderground v.1.13,2013-03-27 10:53:00,
2013-03-27 06:58:00,21.5,18.5,29.83,NE,53,0.0,0.0,88,0.00,,,0.00,Wunderground v.1.13,2013-03-27 10:58:00,
2013-03-27 07:03:00,21.5,18.5,29.83,NE,53,0.0,0.0,88,0.00,,,0.00,Wunderground v.1.13,2013-03-27 11:03:00,
2013-03-27 07:08:00,21.7,18.7,29.83,NE,53,0.0,0.0,88,0.00,,,0.00,Wunderground v.1.13,2013-03-27 11:08:00,
2013-03-27 07:13:00,21.9,18.9,29.83,NE,53,0.0,0.0,88,0.00,,,0.00,Wunderground v.1.13,2013-03-27 11:13:00,
2013-03-27 07:18:00,22.0,19.0,29.83,NE,53,0.0,0.0,88,0.00,,,0.00,Wunderground v.1.13,2013-03-27 11:18:00,
2013-03-27 07:23:00,22.3,19.3,29.83,NE,53,0.0,0.0,88,0.00,,,0.00,Wunderground v.1.13,2013-03-27 11:23:00,
2013-03-27 07:28:00,22.4,19.4,29.83,NE,53,0.0,0.0,88,0.00,,,0.00,Wunderground v.1.13,2013-03-27 11:28:00,
2013-03-27 07:33:00,22.5,19.2,29.83,NE,53,0.0,0.0,87,0.00,,,0.00,Wunderground v.1.13,2013-03-27 11:33:00,
2013-03-27 07:38:00,22.7,19.4,29.84,NE,53,0.0,0.0,87,0.00,,,0.00,Wunderground v.1.13,2013-03-27 11:38:00,
2013-03-27 07:43:00,23.1,20.1,29.84,NE,53,0.0,0.0,88,0.00,,,0.00,Wunderground v.1.13,2013-03-27 11:43:00,
2013-03-27 07:48:00,23.5,20.2,29.84,NE,53,0.0,0.0,87,0.00,,,0.00,Wunderground v.1.13,2013-03-27 11:48:00,
2013-03-27 07:53:00,23.9,20.6,29.84,NE,53,0.0,0.0,87,0.00,,,0.00,Wunderground v.1.13,2013-03-27 11:53:00,
2013-03-27 07:58:00,24.4,21.1,29.84,NE,53,0.0,0.0,87,0.00,,,0.00,Wunderground v.1.13,2013-03-27 11:58:00,
2013-03-27 08:04:00,24.9,21.3,29.84,NE,53,0.0,0.0,86,0.00,,,0.00,Wunderground v.1.13,2013-03-27 12:04:00,
2013-03-27 08:09:00,25.5,21.9,29.84,NE,53,0.0,0.0,86,0.00,,,0.00,Wunderground v.1.13,2013-03-27 12:09:00,
2013-03-27 08:14:00,26.1,22.2,29.84,NE,53,0.0,0.0,85,0.00,,,0.00,Wunderground v.1.13,2013-03-27 12:14:00,
2013-03-27 08:19:00,26.5,22.6,29.84,NE,53,0.0,0.0,85,0.00,,,0.00,Wunderground v.1.13,2013-03-27 12:19:00,
2013-03-27 08:24:00,27.1,22.9,29.85,NE,53,0.0,0.0,84,0.00,,,0.00,Wunderground v.1.13,2013-03-27 12:24:00,
2013-03-27 08:29:00,27.6,23.4,29.85,NE,53,0.0,0.0,84,0.00,,,0.00,Wunderground v.1.13,2013-03-27 12:29:00,
2013-03-27 08:34:00,28.2,23.4,29.85,NE,53,0.0,0.0,82,0.00,,,0.00,Wunderground v.1.13,2013-03-27 12:34:00,
2013-03-27 08:39:00,28.9,24.1,29.85,NE,53,0.0,0.0,82,0.00,,,0.00,Wunderground v.1.13,2013-03-27 12:39:00,
2013-03-27 08:44:00,29.6,24.2,29.85,NE,53,0.0,0.0,80,0.00,,,0.00,Wunderground v.1.13,2013-03-27 12:44:00,
2013-03-27 08:49:00,30.3,24.3,29.85,NE,53,0.0,0.0,78,0.00,,,0.00,Wunderground v.1.13,2013-03-27 12:49:00,
2013-03-27 08:54:00,31.0,24.6,29.85,NE,53,0.0,1.0,77,0.00,,,0.00,Wunderground v.1.13,2013-03-27 12:54:00,
2013-03-27 08:59:00,32.0,25.3,29.86,NE,53,0.0,0.0,76,0.00,,,0.00,Wunderground v.1.13,2013-03-27 12:59:00,
2013-03-27 09:04:00,33.0,25.9,29.86,NE,53,0.0,0.0,75,0.00,,,0.00,Wunderground v.1.13,2013-03-27 13:04:00,
2013-03-27 09:09:00,34.1,25.7,29.86,NE,53,0.0,1.0,71,0.00,,,0.00,Wunderground v.1.13,2013-03-27 13:09:00,
2013-03-27 09:15:00,35.2,26.0,29.86,NE,53,0.0,0.0,69,0.00,,,0.00,Wunderground v.1.13,2013-03-27 13:15:00,
2013-03-27 09:20:00,36.4,26.5,29.86,NE,53,0.0,0.0,67,0.00,,,0.00,Wunderground v.1.13,2013-03-27 13:20:00,
2013-03-27 09:25:00,37.4,26.3,29.85,NE,53,0.0,0.0,64,0.00,,,0.00,Wunderground v.1.13,2013-03-27 13:25:00,
2013-03-27 09:30:00,38.1,26.2,29.86,NE,53,1.0,2.0,62,0.00,,,0.00,Wunderground v.1.13,2013-03-27 13:30:00,
2013-03-27 09:35:00,38.7,25.6,29.85,NE,53,0.0,2.0,59,0.00,,,0.00,Wunderground v.1.13,2013-03-27 13:35:00,
2013-03-27 09:40:00,39.1,26.0,29.86,WNW,296,0.0,3.0,59,0.00,,,0.00,Wunderground v.1.13,2013-03-27 13:40:00,
2013-03-27 09:45:00,39.3,25.7,29.85,WNW,300,2.0,2.0,58,0.00,,,0.00,Wunderground v.1.13,2013-03-27 13:45:00,
2013-03-27 09:50:00,39.6,25.6,29.85,South,176,3.0,3.0,57,0.00,,,0.00,Wunderground v.1.13,2013-03-27 13:50:00,
2013-03-27 09:56:00,39.8,25.8,29.85,NNE,22,0.0,1.0,57,0.00,,,0.00,Wunderground v.1.13,2013-03-27 13:56:00,
2013-03-27 10:01:00,40.5,25.6,29.85,WNW,284,3.0,3.0,55,0.00,,,0.00,Wunderground v.1.13,2013-03-27 14:01:00,
2013-03-27 10:06:00,41.3,26.8,29.85,NE,48,0.0,3.0,56,0.00,,,0.00,Wunderground v.1.13,2013-03-27 14:06:00,
2013-03-27 10:11:00,42.2,26.7,29.85,WSW,246,4.0,4.0,54,0.00,,,0.00,Wunderground v.1.13,2013-03-27 14:11:00,
2013-03-27 10:16:00,42.7,26.3,29.85,NNE,13,0.0,3.0,52,0.00,,,0.00,Wunderground v.1.13,2013-03-27 14:16:00,
2013-03-27 10:21:00,42.9,26.5,29.85,NNE,15,1.0,3.0,52,0.00,,,0.00,Wunderground v.1.13,2013-03-27 14:21:00,
2013-03-27 10:26:00,42.2,26.3,29.85,SW,223,0.0,3.0,53,0.00,,,0.00,Wunderground v.1.13,2013-03-27 14:26:00,
2013-03-27 10:31:00,41.7,26.3,29.85,SSW,209,4.0,5.0,54,0.00,,,0.00,Wunderground v.1.13,2013-03-27 14:31:00,
2013-03-27 10:37:00,41.7,26.3,29.85,North,9,3.0,5.0,54,0.00,,,0.00,Wunderground v.1.13,2013-03-27 14:37:00,
2013-03-27 10:42:00,41.8,25.9,29.85,SSW,207,2.0,8.0,53,0.00,,,0.00,Wunderground v.1.13,2013-03-27 14:42:00,
2013-03-27 10:47:00,41.7,26.3,29.85,SW,221,6.0,6.0,54,0.00,,,0.00,Wunderground v.1.13,2013-03-27 14:47:00,
2013-03-27 10:52:00,42.1,26.6,29.85,NNE,28,4.0,4.0,54,0.00,,,0.00,Wunderground v.1.13,2013-03-27 14:52:00,
2013-03-27 10:57:00,43.0,27.0,29.85,NW,319,1.0,3.0,53,0.00,,,0.00,Wunderground v.1.13,2013-03-27 14:57:00,
2013-03-27 11:02:00,43.4,26.9,29.84,NW,320,1.0,3.0,52,0.00,,,0.00,Wunderground v.1.13,2013-03-27 15:02:00,
2013-03-27 11:08:00,43.6,26.6,29.84,WNW,298,2.0,5.0,51,0.00,,,0.00,Wunderground v.1.13,2013-03-27 15:08:00,
2013-03-27 11:13:00,43.8,27.3,29.84,SW,230,0.0,7.0,52,0.00,,,0.00,Wunderground v.1.13,2013-03-27 15:13:00,
2013-03-27 11:18:00,43.9,27.9,29.84,NNE,25,3.0,5.0,53,0.00,,,0.00,Wunderground v.1.13,2013-03-27 15:18:00,
2013-03-27 11:23:00,44.5,27.0,29.84,East,95,0.0,7.0,50,0.00,,,0.00,Wunderground v.1.13,2013-03-27 15:23:00,
2013-03-27 11:28:00,44.7,27.7,29.84,South,183,0.0,2.0,51,0.00,,,0.00,Wunderground v.1.13,2013-03-27 15:28:00,
2013-03-27 11:33:00,45.2,27.6,29.84,WSW,249,1.0,5.0,50,0.00,,,0.00,Wunderground v.1.13,2013-03-27 15:33:00,
2013-03-27 11:38:00,45.8,27.7,29.84,NNW,348,0.0,2.0,49,0.00,,,0.00,Wunderground v.1.13,2013-03-27 15:38:00,
2013-03-27 11:43:00,45.3,27.2,29.84,NNW,329,4.0,8.0,49,0.00,,,0.00,Wunderground v.1.13,2013-03-27 15:43:00,
2013-03-27 11:48:00,45.1,27.6,29.84,North,5,2.0,4.0,50,0.00,,,0.00,Wunderground v.1.13,2013-03-27 15:48:00,
2013-03-27 11:53:00,45.1,26.6,29.84,SE,141,4.0,14.0,48,0.00,,,0.00,Wunderground v.1.13,2013-03-27 15:53:00,
2013-03-27 11:58:00,45.4,27.3,29.84,NE,41,5.0,6.0,49,0.00,,,0.00,Wunderground v.1.13,2013-03-27 15:58:00,
2013-03-27 12:03:00,45.6,27.5,29.84,WNW,292,4.0,7.0,49,0.00,,,0.00,Wunderground v.1.13,2013-03-27 16:03:00,
2013-03-27 12:08:00,45.4,26.8,29.84,ESE,103,4.0,7.0,48,0.00,,,0.00,Wunderground v.1.13,2013-03-27 16:08:00,
2013-03-27 12:13:00,45.1,27.1,29.84,NNE,30,1.0,12.0,49,0.00,,,0.00,Wunderground v.1.13,2013-03-27 16:13:00,
2013-03-27 12:18:00,45.5,26.9,29.83,East,79,7.0,9.0,48,0.00,,,0.00,Wunderground v.1.13,2013-03-27 16:18:00,
2013-03-27 12:23:00,45.7,26.6,29.84,SSW,205,2.0,8.0,47,0.00,,,0.00,Wunderground v.1.13,2013-03-27 16:23:00,
2013-03-27 12:28:00,45.4,27.3,29.84,NW,318,1.0,12.0,49,0.00,,,0.00,Wunderground v.1.13,2013-03-27 16:28:00,
2013-03-27 12:33:00,45.0,26.5,29.84,NNW,337,3.0,9.0,48,0.00,,,0.00,Wunderground v.1.13,2013-03-27 16:33:00,
2013-03-27 12:38:00,44.7,27.2,29.84,NE,47,3.0,6.0,50,0.00,,,0.00,Wunderground v.1.13,2013-03-27 16:38:00,
2013-03-27 12:43:00,44.9,27.4,29.84,NNE,25,1.0,5.0,50,0.00,,,0.00,Wunderground v.1.13,2013-03-27 16:43:00,
2013-03-27 12:48:00,45.0,27.5,29.84,North,5,2.0,6.0,50,0.00,,,0.00,Wunderground v.1.13,2013-03-27 16:48:00,
2013-03-27 12:53:00,44.9,26.9,29.84,ESE,103,3.0,7.0,49,0.00,,,0.00,Wunderground v.1.13,2013-03-27 16:53:00,
2013-03-27 12:58:00,44.5,26.5,29.84,NNW,346,3.0,5.0,49,0.00,,,0.00,Wunderground v.1.13,2013-03-27 16:58:00,
2013-03-27 13:04:00,44.7,26.7,29.84,NE,44,3.0,4.0,49,0.00,,,0.00,Wunderground v.1.13,2013-03-27 17:04:00,
2013-03-27 13:09:00,45.1,26.6,29.84,West,275,4.0,5.0,48,0.00,,,0.00,Wunderground v.1.13,2013-03-27 17:09:00,
2013-03-27 13:14:00,45.5,27.4,29.84,ESE,107,1.0,6.0,49,0.00,,,0.00,Wunderground v.1.13,2013-03-27 17:14:00,
2013-03-27 13:19:00,45.5,27.9,29.84,NNW,327,4.0,5.0,50,0.00,,,0.00,Wunderground v.1.13,2013-03-27 17:19:00,
2013-03-27 13:24:00,45.2,26.7,29.84,East,94,2.0,8.0,48,0.00,,,0.00,Wunderground v.1.13,2013-03-27 17:24:00,
2013-03-27 13:29:00,45.0,27.0,29.84,North,360,4.0,10.0,49,0.00,,,0.00,Wunderground v.1.13,2013-03-27 17:29:00,
2013-03-27 13:34:00,44.5,27.5,29.84,North,355,3.0,6.0,51,0.00,,,0.00,Wunderground v.1.13,2013-03-27 17:34:00,
2013-03-27 13:39:00,44.2,26.7,29.84,North,355,6.0,9.0,50,0.00,,,0.00,Wunderground v.1.13,2013-03-27 17:39:00,
2013-03-27 13:44:00,44.3,26.3,29.84,ENE,61,3.0,5.0,49,0.00,,,0.00,Wunderground v.1.13,2013-03-27 17:44:00,
2013-03-27 13:49:00,44.9,27.4,29.84,NNE,33,0.0,5.0,50,0.00,,,0.00,Wunderground v.1.13,2013-03-27 17:49:00,
2013-03-27 13:54:00,45.2,27.6,29.84,NNW,342,3.0,10.0,50,0.00,,,0.00,Wunderground v.1.13,2013-03-27 17:54:00,
2013-03-27 13:59:00,45.0,26.5,29.84,ENE,73,3.0,9.0,48,0.00,,,0.00,Wunderground v.1.13,2013-03-27 17:59:00,
2013-03-27 14:04:00,44.6,26.6,29.84,North,9,0.0,6.0,49,0.00,,,0.00,Wunderground v.1.13,2013-03-27 18:04:00,
2013-03-27 14:09:00,44.6,26.6,29.83,WNW,290,6.0,6.0,49,0.00,,,0.00,Wunderground v.1.13,2013-03-27 18:09:00,
2013-03-27 14:14:00,44.7,26.2,29.83,NW,308,8.0,14.0,48,0.00,,,0.00,Wunderground v.1.13,2013-03-27 18:14:00,
2013-03-27 14:19:00,44.6,25.6,29.83,North,355,1.0,11.0,47,0.00,,,0.00,Wunderground v.1.13,2013-03-27 18:19:00,
2013-03-27 14:24:00,44.7,26.2,29.83,West,281,3.0,9.0,48,0.00,,,0.00,Wunderground v.1.13,2013-03-27 18:24:00,
2013-03-27 14:29:00,45.0,27.5,29.83,WSW,240,4.0,6.0,50,0.00,,,0.00,Wunderground v.1.13,2013-03-27 18:29:00,
2013-03-27 14:34:00,44.9,26.9,29.84,NNW,327,3.0,12.0,49,0.00,,,0.00,Wunderground v.1.13,2013-03-27 18:34:00,
2013-03-27 14:39:00,44.8,27.3,29.83,NW,306,3.0,11.0,50,0.00,,,0.00,Wunderground v.1.13,2013-03-27 18:39:00,
2013-03-27 14:44:00,44.6,27.1,29.84,SSE,168,0.0,11.0,50,0.00,,,0.00,Wunderground v.1.13,2013-03-27 18:44:00,
2013-03-27 14:49:00,44.5,26.5,29.84,South,173,0.0,6.0,49,0.00,,,0.00,Wunderground v.1.13,2013-03-27 18:49:00,
2013-03-27 14:54:00,44.6,26.6,29.84,North,349,0.0,9.0,49,0.00,,,0.00,Wunderground v.1.13,2013-03-27 18:54:00,
2013-03-27 14:59:00,44.7,27.2,29.84,ENE,61,1.0,5.0,50,0.00,,,0.00,Wunderground v.1.13,2013-03-27 18:59:00,
2013-03-27 15:04:00,45.0,27.0,29.84,WNW,294,3.0,7.0,49,0.00,,,0.00,Wunderground v.1.13,2013-03-27 19:04:00,
2013-03-27 15:09:00,45.0,27.5,29.83,ESE,122,4.0,10.0,50,0.00,,,0.00,Wunderground v.1.13,2013-03-27 19:09:00,
2013-03-27 15:14:00,44.8,26.3,29.83,NNW,332,4.0,8.0,48,0.00,,,0.00,Wunderground v.1.13,2013-03-27 19:14:00,
2013-03-27 15:19:00,44.5,26.5,29.83,NW,308,4.0,8.0,49,0.00,,,0.00,Wunderground v.1.13,2013-03-27 19:19:00,
2013-03-27 15:24:00,44.3,26.8,29.84,North,5,2.0,6.0,50,0.00,,,0.00,Wunderground v.1.13,2013-03-27 19:24:00,
2013-03-27 15:29:00,44.5,27.5,29.84,NE,56,0.0,5.0,51,0.00,,,0.00,Wunderground v.1.13,2013-03-27 19:29:00,
2013-03-27 15:35:00,44.8,26.3,29.83,North,11,3.0,3.0,48,0.00,,,0.00,Wunderground v.1.13,2013-03-27 19:35:00,
2013-03-27 15:40:00,44.7,26.2,29.84,West,270,4.0,4.0,48,0.00,,,0.00,Wunderground v.1.13,2013-03-27 19:40:00,
2013-03-27 15:45:00,44.6,26.6,29.84,NNE,21,0.0,2.0,49,0.00,,,0.00,Wunderground v.1.13,2013-03-27 19:45:00,
2013-03-27 15:50:00,44.3,27.8,29.84,SSE,156,5.0,5.0,52,0.00,,,0.00,Wunderground v.1.13,2013-03-27 19:50:00,
2013-03-27 15:55:00,44.2,26.7,29.84,NE,55,4.0,6.0,50,0.00,,,0.00,Wunderground v.1.13,2013-03-27 19:55:00,
2013-03-27 16:00:00,44.4,26.4,29.84,NE,37,0.0,4.0,49,0.00,,,0.00,Wunderground v.1.13,2013-03-27 20:00:00,
2013-03-27 16:05:00,45.0,27.5,29.84,North,351,4.0,9.0,50,0.00,,,0.00,Wunderground v.1.13,2013-03-27 20:05:00,
2013-03-27 16:10:00,45.8,27.7,29.84,ENE,72,1.0,3.0,49,0.00,,,0.00,Wunderground v.1.13,2013-03-27 20:10:00,
2013-03-27 16:15:00,46.1,27.5,29.84,NE,41,0.0,3.0,48,0.00,,,0.00,Wunderground v.1.13,2013-03-27 20:15:00,
2013-03-27 16:20:00,45.9,27.3,29.84,NNE,25,0.0,3.0,48,0.00,,,0.00,Wunderground v.1.13,2013-03-27 20:20:00,
2013-03-27 16:25:00,45.4,27.3,29.84,ENE,61,5.0,6.0,49,0.00,,,0.00,Wunderground v.1.13,2013-03-27 20:25:00,
2013-03-27 16:30:00,44.8,27.3,29.84,West,267,3.0,4.0,50,0.00,,,0.00,Wunderground v.1.13,2013-03-27 20:30:00,
2013-03-27 16:35:00,44.4,27.4,29.84,SW,215,2.0,2.0,51,0.00,,,0.00,Wunderground v.1.13,2013-03-27 20:35:00,
2013-03-27 16:40:00,44.0,27.0,29.84,ENE,75,0.0,4.0,51,0.00,,,0.00,Wunderground v.1.13,2013-03-27 20:40:00,
2013-03-27 16:45:00,43.8,27.8,29.85,NNW,333,3.0,3.0,53,0.00,,,0.00,Wunderground v.1.13,2013-03-27 20:45:00,
2013-03-27 16:50:00,43.6,27.1,29.85,East,97,0.0,3.0,52,0.00,,,0.00,Wunderground v.1.13,2013-03-27 20:50:00,
2013-03-27 16:55:00,43.7,27.2,29.85,North,9,4.0,4.0,52,0.00,,,0.00,Wunderground v.1.13,2013-03-27 20:55:00,
2013-03-27 17:00:00,43.8,27.3,29.85,NNE,33,0.0,3.0,52,0.00,,,0.00,Wunderground v.1.13,2013-03-27 21:00:00,
2013-03-27 17:05:00,43.9,27.9,29.85,ENE,67,2.0,3.0,53,0.00,,,0.00,Wunderground v.1.13,2013-03-27 21:05:00,
2013-03-27 17:10:00,43.7,27.7,29.86,East,94,1.0,6.0,53,0.00,,,0.00,Wunderground v.1.13,2013-03-27 21:10:00,
2013-03-27 17:15:00,43.5,27.5,29.86,ESE,114,0.0,3.0,53,0.00,,,0.00,Wunderground v.1.13,2013-03-27 21:15:00,
2013-03-27 17:20:00,43.3,27.3,29.86,NNW,344,3.0,5.0,53,0.00,,,0.00,Wunderground v.1.13,2013-03-27 21:20:00,
2013-03-27 17:26:00,43.1,28.0,29.86,NE,41,2.0,2.0,55,0.00,,,0.00,Wunderground v.1.13,2013-03-27 21:26:00,
2013-03-27 17:31:00,42.9,27.8,29.86,NW,320,5.0,5.0,55,0.00,,,0.00,Wunderground v.1.13,2013-03-27 21:31:00,
2013-03-27 17:36:00,42.8,27.7,29.86,ENE,58,3.0,5.0,55,0.00,,,0.00,Wunderground v.1.13,2013-03-27 21:36:00,
2013-03-27 17:41:00,42.8,27.3,29.87,ENE,65,2.0,3.0,54,0.00,,,0.00,Wunderground v.1.13,2013-03-27 21:41:00,
2013-03-27 17:46:00,42.7,28.1,29.87,NNW,343,1.0,2.0,56,0.00,,,0.00,Wunderground v.1.13,2013-03-27 21:46:00,
2013-03-27 17:52:00,42.6,28.0,29.87,North,5,2.0,4.0,56,0.00,,,0.00,Wunderground v.1.13,2013-03-27 21:52:00,
2013-03-27 17:57:00,42.5,28.3,29.87,NNW,345,0.0,3.0,57,0.00,,,0.00,Wunderground v.1.13,2013-03-27 21:57:00,
2013-03-27 18:02:00,42.4,27.8,29.87,NNE,32,2.0,10.0,56,0.00,,,0.00,Wunderground v.1.13,2013-03-27 22:02:00,
2013-03-27 18:07:00,42.4,29.9,29.87,ESE,103,0.0,2.0,61,0.00,,,0.00,Wunderground v.1.13,2013-03-27 22:07:00,
2013-03-27 18:12:00,42.2,28.5,29.88,North,355,2.0,4.0,58,0.00,,,0.00,Wunderground v.1.13,2013-03-27 22:12:00,
2013-03-27 18:17:00,41.9,28.6,29.88,North,9,4.0,5.0,59,0.00,,,0.00,Wunderground v.1.13,2013-03-27 22:17:00,
2013-03-27 18:22:00,41.7,28.8,29.88,ENE,68,0.0,5.0,60,0.00,,,0.00,Wunderground v.1.13,2013-03-27 22:22:00,
2013-03-27 18:27:00,41.4,29.3,29.88,North,360,6.0,10.0,62,0.00,,,0.00,Wunderground v.1.13,2013-03-27 22:27:00,
2013-03-27 18:32:00,41.2,29.2,29.88,ENE,72,3.0,4.0,62,0.00,,,0.00,Wunderground v.1.13,2013-03-27 22:32:00,
2013-03-27 18:38:00,41.1,29.5,29.89,NNE,12,1.0,5.0,63,0.00,,,0.00,Wunderground v.1.13,2013-03-27 22:38:00,
2013-03-27 18:43:00,40.9,29.3,29.89,West,263,2.0,4.0,63,0.00,,,0.00,Wunderground v.1.13,2013-03-27 22:43:00,
2013-03-27 18:48:00,40.7,29.5,29.89,East,82,2.0,7.0,64,0.00,,,0.00,Wunderground v.1.13,2013-03-27 22:48:00,
2013-03-27 18:53:00,40.6,29.4,29.89,North,10,0.0,6.0,64,0.00,,,0.00,Wunderground v.1.13,2013-03-27 22:53:00,
2013-03-27 18:58:00,40.5,29.7,29.90,WNW,300,0.0,4.0,65,0.00,,,0.00,Wunderground v.1.13,2013-03-27 22:58:00,
2013-03-27 19:03:00,40.2,29.7,29.90,NNW,334,2.0,2.0,66,0.00,,,0.00,Wunderground v.1.13,2013-03-27 23:03:00,
2013-03-27 19:08:00,39.9,29.8,29.90,North,11,2.0,5.0,67,0.00,,,0.00,Wunderground v.1.13,2013-03-27 23:08:00,
2013-03-27 19:13:00,39.8,29.7,29.90,North,9,0.0,4.0,67,0.00,,,0.00,Wunderground v.1.13,2013-03-27 23:13:00,
2013-03-27 19:19:00,39.8,30.1,29.91,North,355,0.0,4.0,68,0.00,,,0.00,Wunderground v.1.13,2013-03-27 23:19:00,
2013-03-27 19:24:00,39.7,30.0,29.91,ENE,78,0.0,12.0,68,0.00,,,0.00,Wunderground v.1.13,2013-03-27 23:24:00,
2013-03-27 19:29:00,39.6,30.3,29.91,North,5,3.0,10.0,69,0.00,,,0.00,Wunderground v.1.13,2013-03-27 23:29:00,
2013-03-27 19:34:00,39.3,30.7,29.91,North,5,5.0,5.0,71,0.00,,,0.00,Wunderground v.1.13,2013-03-27 23:34:00,
2013-03-27 19:39:00,39.1,30.8,29.91,NNW,334,5.0,5.0,72,0.00,,,0.00,Wunderground v.1.13,2013-03-27 23:39:00,
2013-03-27 19:44:00,38.9,30.6,29.92,NE,51,1.0,9.0,72,0.00,,,0.00,Wunderground v.1.13,2013-03-27 23:44:00,
2013-03-27 19:49:00,38.8,30.9,29.92,NNE,22,0.0,5.0,73,0.00,,,0.00,Wunderground v.1.13,2013-03-27 23:49:00,
2013-03-27 19:54:00,38.6,31.0,29.92,NNW,342,2.0,6.0,74,0.00,,,0.00,Wunderground v.1.13,2013-03-27 23:54:00,
2013-03-27 19:59:00,38.3,30.7,29.92,NE,42,3.0,4.0,74,0.00,,,0.00,Wunderground v.1.13,2013-03-27 23:59:00,
2013-03-27 20:04:00,38.2,30.6,29.93,North,355,1.0,10.0,74,0.00,,,0.00,Wunderground v.1.13,2013-03-28 00:04:00,
2013-03-27 20:09:00,38.0,30.8,29.93,North,5,1.0,4.0,75,0.00,,,0.00,Wunderground v.1.13,2013-03-28 00:09:00,
2013-03-27 20:14:00,37.9,31.0,29.93,West,279,2.0,7.0,76,0.00,,,0.00,Wunderground v.1.13,2013-03-28 00:14:00,
2013-03-27 20:19:00,37.9,31.0,29.93,NNE,28,0.0,7.0,76,0.00,,,0.00,Wunderground v.1.13,2013-03-28 00:19:00,
2013-03-27 20:24:00,37.8,30.9,29.93,NNW,344,0.0,5.0,76,0.00,,,0.00,Wunderground v.1.13,2013-03-28 00:24:00,
2013-03-27 20:29:00,37.7,31.1,29.93,NNW,344,0.0,2.0,77,0.00,,,0.00,Wunderground v.1.13,2013-03-28 00:29:00,
2013-03-27 20:34:00,37.5,30.9,29.93,North,5,2.0,4.0,77,0.00,,,0.00,Wunderground v.1.13,2013-03-28 00:34:00,
2013-03-27 20:39:00,37.4,30.8,29.93,North,360,0.0,3.0,77,0.00,,,0.00,Wunderground v.1.13,2013-03-28 00:39:00,
2013-03-27 20:45:00,37.4,30.8,29.94,WNW,284,1.0,1.0,77,0.00,,,0.00,Wunderground v.1.13,2013-03-28 00:45:00,
2013-03-27 20:50:00,37.3,31.1,29.94,ENE,61,3.0,3.0,78,0.00,,,0.00,Wunderground v.1.13,2013-03-28 00:50:00,
2013-03-27 20:55:00,37.2,31.0,29.94,North,355,0.0,1.0,78,0.00,,,0.00,Wunderground v.1.13,2013-03-28 00:55:00,
2013-03-27 21:00:00,37.1,31.2,29.94,North,355,0.0,1.0,79,0.00,,,0.00,Wunderground v.1.13,2013-03-28 01:00:00,
2013-03-27 21:05:00,36.9,31.0,29.95,NNW,343,3.0,4.0,79,0.00,,,0.00,Wunderground v.1.13,2013-03-28 01:05:00,
2013-03-27 21:10:00,36.8,31.2,29.95,North,349,1.0,1.0,80,0.00,,,0.00,Wunderground v.1.13,2013-03-28 01:10:00,
2013-03-27 21:15:00,36.7,31.4,29.95,North,350,0.0,1.0,81,0.00,,,0.00,Wunderground v.1.13,2013-03-28 01:15:00,
2013-03-27 21:20:00,36.6,31.3,29.95,North,350,0.0,2.0,81,0.00,,,0.00,Wunderground v.1.13,2013-03-28 01:20:00,
2013-03-27 21:25:00,36.4,31.4,29.95,North,349,0.0,1.0,82,0.00,,,0.00,Wunderground v.1.13,2013-03-28 01:25:00,
2013-03-27 21:30:00,36.2,31.2,29.95,North,349,0.0,1.0,82,0.00,,,0.00,Wunderground v.1.13,2013-03-28 01:30:00,
2013-03-27 21:36:00,36.1,31.4,29.95,North,350,0.0,1.0,83,0.00,,,0.00,Wunderground v.1.13,2013-03-28 01:36:00,
2013-03-27 21:42:00,36.0,31.3,29.95,NE,44,0.0,3.0,83,0.00,,,0.00,Wunderground v.1.13,2013-03-28 01:42:00,
2013-03-27 21:47:00,36.0,31.6,29.95,NE,44,0.0,1.0,84,0.00,,,0.00,Wunderground v.1.13,2013-03-28 01:47:00,
2013-03-27 21:52:00,35.9,31.5,29.95,NE,44,0.0,0.0,84,0.00,,,0.00,Wunderground v.1.13,2013-03-28 01:52:00,
2013-03-27 21:57:00,35.8,31.7,29.95,NE,44,0.0,0.0,85,0.00,,,0.00,Wunderground v.1.13,2013-03-28 01:57:00,
2013-03-27 22:02:00,35.6,31.5,29.95,NE,44,0.0,0.0,85,0.00,,,0.00,Wunderground v.1.13,2013-03-28 02:02:00,
2013-03-27 22:07:00,35.5,31.4,29.95,NE,44,0.0,0.0,85,0.00,,,0.00,Wunderground v.1.13,2013-03-28 02:07:00,
2013-03-27 22:12:00,35.3,31.5,29.95,NE,44,0.0,0.0,86,0.00,,,0.00,Wunderground v.1.13,2013-03-28 02:12:00,
2013-03-27 22:17:00,35.2,31.4,29.95,NE,44,0.0,1.0,86,0.00,,,0.00,Wunderground v.1.13,2013-03-28 02:17:00,
2013-03-27 22:22:00,35.1,31.3,29.95,ESE,108,0.0,0.0,86,0.00,,,0.00,Wunderground v.1.13,2013-03-28 02:22:00,
2013-03-27 22:28:00,35.1,31.3,29.95,East,94,0.0,1.0,86,0.00,,,0.00,Wunderground v.1.13,2013-03-28 02:28:00,
2013-03-27 22:33:00,35.0,31.5,29.95,ENE,63,2.0,2.0,87,0.00,,,0.00,Wunderground v.1.13,2013-03-28 02:33:00,
2013-03-27 22:39:00,34.9,31.4,29.95,NNE,28,1.0,2.0,87,0.00,,,0.00,Wunderground v.1.13,2013-03-28 02:39:00,
2013-03-27 22:44:00,34.8,31.3,29.95,NNE,26,1.0,2.0,87,0.00,,,0.00,Wunderground v.1.13,2013-03-28 02:44:00,
2013-03-27 22:49:00,34.7,31.2,29.95,NNE,31,1.0,3.0,87,0.00,,,0.00,Wunderground v.1.13,2013-03-28 02:49:00,
2013-03-27 22:54:00,34.7,31.2,29.95,South,179,1.0,2.0,87,0.00,,,0.00,Wunderground v.1.13,2013-03-28 02:54:00,
2013-03-27 22:59:00,34.5,31.3,29.95,South,178,1.0,2.0,88,0.00,,,0.00,Wunderground v.1.13,2013-03-28 02:59:00,
2013-03-27 23:04:00,34.6,31.4,29.95,NNE,24,0.0,4.0,88,0.00,,,0.00,Wunderground v.1.13,2013-03-28 03:04:00,
2013-03-27 23:09:00,34.6,31.4,29.95,NNE,24,0.0,1.0,88,0.00,,,0.00,Wunderground v.1.13,2013-03-28 03:09:00,
2013-03-27 23:14:00,34.4,31.2,29.95,NNE,19,1.0,4.0,88,0.00,,,0.00,Wunderground v.1.13,2013-03-28 03:14:00,
2013-03-27 23:19:00,34.5,31.3,29.95,SSW,207,3.0,4.0,88,0.00,,,0.00,Wunderground v.1.13,2013-03-28 03:19:00,
2013-03-27 23:24:00,34.6,31.4,29.95,SSW,212,0.0,3.0,88,0.00,,,0.00,Wunderground v.1.13,2013-03-28 03:24:00,
2013-03-27 23:29:00,34.6,31.4,29.95,SSW,211,0.0,2.0,88,0.00,,,0.00,Wunderground v.1.13,2013-03-28 03:29:00,
2013-03-27 23:34:00,34.6,31.4,29.95,NNE,27,0.0,2.0,88,0.00,,,0.00,Wunderground v.1.13,2013-03-28 03:34:00,
2013-03-27 23:39:00,34.6,31.4,29.95,NE,36,1.0,3.0,88,0.00,,,0.00,Wunderground v.1.13,2013-03-28 03:39:00,
2013-03-27 23:44:00,34.5,31.3,29.95,NE,45,0.0,2.0,88,0.00,,,0.00,Wunderground v.1.13,2013-03-28 03:44:00,
2013-03-27 23:49:00,34.4,31.2,29.95,NE,46,1.0,2.0,88,0.00,,,0.00,Wunderground v.1.13,2013-03-28 03:49:00,
2013-03-27 23:55:00,34.4,31.2,29.95,ENE,57,2.0,2.0,88,0.00,,,0.00,Wunderground v.1.13,2013-03-28 03:55:00,